createdAt,value
2018-01-30T00:01:22.508Z,5.80
2018-01-30T00:04:06.028Z,7.30
2018-01-30T00:06:43.396Z,6.70
2018-01-30T00:09:12.948Z,6.90
2018-01-30T00:11:42.750Z,10.50
2018-01-30T00:14:13.760Z,5.40
2018-01-30T00:16:44.455Z,12.10
2018-01-30T00:19:14.048Z,7.93
2018-01-30T00:21:43.703Z,3.80
2018-01-30T00:24:13.261Z,4.07
2018-01-30T00:26:42.798Z,8.13
2018-01-30T00:29:12.384Z,6.83
2018-01-30T00:31:41.991Z,5.50
2018-01-30T00:34:11.668Z,7.23
2018-01-30T00:36:41.799Z,6.50
2018-01-30T00:39:11.376Z,7.07
2018-01-30T00:41:54.781Z,8.17
2018-01-30T00:44:24.373Z,6.00
2018-01-30T00:46:59.189Z,9.13
2018-01-30T00:49:28.803Z,4.67
2018-01-30T00:52:01.489Z,5.63
2018-01-30T00:54:31.032Z,4.10
2018-01-30T00:57:00.549Z,6.10
2018-01-30T00:59:30.077Z,5.60
2018-01-30T01:02:04.967Z,8.40
2018-01-30T01:04:34.544Z,4.13
2018-01-30T01:07:04.160Z,5.00
2018-01-30T01:09:34.981Z,6.90
2018-01-30T01:12:14.770Z,8.50
2018-01-30T01:14:44.379Z,19.73
2018-01-30T01:17:13.962Z,7.70
2018-01-30T01:19:43.633Z,11.63
2018-01-30T01:22:13.231Z,5.17
2018-01-30T01:24:50.396Z,7.90
2018-01-30T01:27:19.992Z,6.90
2018-01-30T01:29:49.617Z,9.17
2018-01-30T01:32:19.209Z,7.00
2018-01-30T01:34:48.812Z,12.07
2018-01-30T01:37:18.421Z,8.00
2018-01-30T01:39:49.036Z,7.37
2018-01-30T01:42:18.919Z,13.20
2018-01-30T01:44:48.720Z,9.30
2018-01-30T01:47:18.457Z,7.27
2018-01-30T01:49:48.248Z,9.03
2018-01-30T01:52:25.373Z,6.03
2018-01-30T01:54:55.174Z,5.00
2018-01-30T01:57:24.666Z,13.03
2018-01-30T01:59:54.262Z,13.53
2018-01-30T02:02:24.273Z,10.60
2018-01-30T02:04:53.887Z,8.80
2018-01-30T02:07:24.159Z,8.63
2018-01-30T02:09:53.710Z,7.67
2018-01-30T02:12:24.698Z,7.47
2018-01-30T02:14:54.464Z,20.40
2018-01-30T02:17:24.661Z,14.27
2018-01-30T02:19:54.248Z,7.40
2018-01-30T02:22:24.270Z,8.23
2018-01-30T02:24:54.036Z,9.23
2018-01-30T02:27:23.655Z,10.97
2018-01-30T02:29:53.243Z,10.80
2018-01-30T02:32:22.866Z,6.50
2018-01-30T02:34:52.470Z,13.00
2018-01-30T02:37:22.105Z,10.47
2018-01-30T02:39:51.692Z,11.90
2018-01-30T02:42:21.363Z,6.90
2018-01-30T02:44:51.206Z,8.97
2018-01-30T02:47:20.849Z,6.70
2018-01-30T02:49:57.743Z,12.60
2018-01-30T02:52:27.425Z,7.90
2018-01-30T02:54:57.013Z,10.60
2018-01-30T02:57:26.660Z,7.90
2018-01-30T02:59:56.227Z,10.83
2018-01-30T03:02:33.813Z,10.70
2018-01-30T03:05:03.678Z,7.77
2018-01-30T03:07:33.358Z,9.77
2018-01-30T03:10:02.941Z,8.73
2018-01-30T03:12:33.228Z,9.37
2018-01-30T03:15:02.847Z,13.07
2018-01-30T03:17:32.436Z,11.70
2018-01-30T03:20:02.317Z,9.73
2018-01-30T03:22:41.950Z,9.50
2018-01-30T03:25:12.910Z,10.67
2018-01-30T03:27:49.029Z,18.97
2018-01-30T03:30:19.791Z,7.03
2018-01-30T03:32:49.955Z,8.83
2018-01-30T03:35:19.952Z,7.60
2018-01-30T03:37:50.070Z,6.40
2018-01-30T03:40:19.620Z,7.00
2018-01-30T03:42:52.112Z,11.87
2018-01-30T03:45:29.266Z,10.70
2018-01-30T03:47:58.860Z,7.17
2018-01-30T03:50:28.406Z,16.00
2018-01-30T03:52:57.973Z,10.60
2018-01-30T03:55:27.497Z,6.90
2018-01-30T03:57:57.036Z,6.73
2018-01-30T04:00:27.013Z,7.27
2018-01-30T04:02:57.115Z,8.70
2018-01-30T04:05:26.648Z,9.10
2018-01-30T04:07:59.564Z,15.50
2018-01-30T04:10:29.175Z,9.27
2018-01-30T04:12:58.741Z,11.27
2018-01-30T04:15:28.356Z,7.00
2018-01-30T04:17:58.010Z,11.50
2018-01-30T04:20:27.799Z,13.87
2018-01-30T04:23:03.672Z,10.47
2018-01-30T04:25:33.473Z,12.10
2018-01-30T04:28:08.672Z,11.23
2018-01-30T04:30:51.858Z,10.13
2018-01-30T04:33:25.249Z,10.00
2018-01-30T04:35:55.697Z,10.03
2018-01-30T04:38:25.303Z,9.77
2018-01-30T04:40:54.843Z,11.93
2018-01-30T04:43:25.974Z,10.57
2018-01-30T04:45:55.604Z,15.03
2018-01-30T04:48:25.492Z,15.97
2018-01-30T04:50:55.028Z,12.07
2018-01-30T04:53:24.620Z,11.73
2018-01-30T04:55:56.020Z,13.43
2018-01-30T04:58:32.820Z,16.43
2018-01-30T05:01:02.387Z,18.53
2018-01-30T05:03:32.014Z,16.10
2018-01-30T05:06:09.457Z,11.47
2018-01-30T05:08:39.062Z,11.77
2018-01-30T05:11:08.649Z,12.67
2018-01-30T05:13:38.175Z,17.30
2018-01-30T05:16:07.819Z,14.90
2018-01-30T05:18:37.443Z,12.43
2018-01-30T05:21:09.415Z,12.90
2018-01-30T05:23:38.996Z,11.00
2018-01-30T05:26:08.808Z,14.27
2018-01-30T05:28:38.750Z,20.43
2018-01-30T05:31:08.595Z,22.47
2018-01-30T05:33:38.138Z,20.37
2018-01-30T05:36:07.732Z,17.43
2018-01-30T05:38:37.235Z,21.30
2018-01-30T05:41:06.772Z,20.80
2018-01-30T05:43:36.311Z,43.50
2018-01-30T05:46:05.784Z,23.63
2018-01-30T05:48:35.379Z,20.40
2018-01-30T05:51:04.935Z,34.77
2018-01-30T05:53:34.449Z,23.80
2018-01-30T05:56:16.502Z,21.03
2018-01-30T05:58:47.295Z,12.47
2018-01-30T06:01:16.861Z,12.53
2018-01-30T06:03:46.445Z,17.53
2018-01-30T06:06:20.490Z,19.43
2018-01-30T06:08:50.154Z,22.80
2018-01-30T06:11:19.981Z,25.03
2018-01-30T06:13:49.511Z,26.70
2018-01-30T06:16:19.115Z,19.50
2018-01-30T06:18:50.210Z,32.33
2018-01-30T06:21:19.755Z,14.67
2018-01-30T06:23:50.289Z,25.90
2018-01-30T06:26:19.833Z,37.20
2018-01-30T06:28:49.366Z,29.73
2018-01-30T06:31:19.039Z,21.40
2018-01-30T06:33:49.982Z,15.27
2018-01-30T06:36:19.652Z,19.20
2018-01-30T06:38:49.187Z,27.13
2018-01-30T06:41:18.722Z,18.03
2018-01-30T06:44:01.114Z,17.07
2018-01-30T06:46:30.682Z,20.17
2018-01-30T06:49:00.503Z,22.93
2018-01-30T06:51:30.552Z,23.03
2018-01-30T06:54:00.834Z,18.73
2018-01-30T06:56:30.379Z,19.60
2018-01-30T06:59:01.269Z,13.30
2018-01-30T07:01:34.588Z,11.70
2018-01-30T07:04:04.437Z,10.90
2018-01-30T07:06:34.106Z,26.27
2018-01-30T07:09:22.670Z,11.80
2018-01-30T07:11:59.068Z,14.40
2018-01-30T07:14:28.610Z,13.90
2018-01-30T07:16:58.459Z,16.90
2018-01-30T07:21:53.546Z,15.63
2018-01-30T07:24:23.085Z,32.50
2018-01-30T07:26:52.624Z,26.93
2018-01-30T07:29:23.001Z,21.87
2018-01-30T07:31:52.503Z,16.00
2018-01-30T07:34:22.688Z,20.23
2018-01-30T07:36:52.971Z,14.03
2018-01-30T07:39:23.890Z,20.70
2018-01-30T07:42:04.016Z,20.27
2018-01-30T07:44:33.990Z,20.80
2018-01-30T07:47:03.811Z,14.33
2018-01-30T07:49:34.158Z,17.57
2018-01-30T07:52:18.245Z,68.53
2018-01-30T07:54:48.447Z,22.03
2018-01-30T07:57:18.251Z,38.87
2018-01-30T07:59:55.562Z,48.07
2018-01-30T08:02:25.155Z,37.80
2018-01-30T08:04:54.698Z,21.17
2018-01-30T08:07:24.239Z,48.87
2018-01-30T08:09:54.186Z,33.37
2018-01-30T08:12:23.761Z,31.20
2018-01-30T08:14:53.754Z,30.43
2018-01-30T08:17:23.746Z,23.93
2018-01-30T08:19:53.311Z,27.53
2018-01-30T08:22:22.858Z,43.70
2018-01-30T08:24:52.395Z,13.30
2018-01-30T08:27:21.898Z,16.17
2018-01-30T08:29:57.969Z,18.47
2018-01-30T08:32:27.870Z,10.87
2018-01-30T08:34:57.445Z,9.90
2018-01-30T08:37:26.998Z,10.63
2018-01-30T08:39:56.563Z,20.23
2018-01-30T08:42:26.369Z,18.27
2018-01-30T08:44:55.950Z,13.13
2018-01-30T08:47:25.467Z,14.37
2018-01-30T08:49:55.015Z,11.90
2018-01-30T08:52:24.650Z,12.30
2018-01-30T08:54:54.213Z,13.23
2018-01-30T08:57:23.719Z,16.20
2018-01-30T08:59:53.276Z,30.57
2018-01-30T09:02:23.421Z,14.93
2018-01-30T09:04:53.813Z,23.00
2018-01-30T09:07:23.384Z,23.97
2018-01-30T09:09:53.463Z,25.10
2018-01-30T09:12:23.735Z,15.57
2018-01-30T09:14:53.375Z,20.33
2018-01-30T09:17:30.191Z,18.37
2018-01-30T09:20:05.741Z,39.77
2018-01-30T09:22:41.294Z,27.30
2018-01-30T09:25:11.083Z,28.20
2018-01-30T09:27:40.714Z,21.53
2018-01-30T09:30:10.307Z,39.70
2018-01-30T09:32:39.870Z,23.47
2018-01-30T09:35:09.395Z,28.63
2018-01-30T09:37:44.969Z,20.53
2018-01-30T09:40:14.535Z,28.30
2018-01-30T09:42:44.152Z,31.53
2018-01-30T09:45:13.664Z,29.03
2018-01-30T09:47:43.217Z,25.37
2018-01-30T09:50:12.778Z,20.77
2018-01-30T09:52:43.170Z,24.13
2018-01-30T09:55:12.696Z,33.67
2018-01-30T09:57:42.203Z,31.17
2018-01-30T10:00:11.732Z,33.40
2018-01-30T10:02:42.018Z,28.73
2018-01-30T10:05:11.766Z,41.17
2018-01-30T10:07:41.303Z,27.93
2018-01-30T10:10:10.806Z,32.30
2018-01-30T10:12:40.451Z,30.30
2018-01-30T10:15:10.001Z,27.03
2018-01-30T10:17:39.526Z,37.00
2018-01-30T10:20:09.147Z,28.50
2018-01-30T10:22:38.717Z,22.90
2018-01-30T10:25:08.718Z,29.10
2018-01-30T10:27:38.247Z,22.07
2018-01-30T10:30:07.805Z,26.83
2018-01-30T10:32:37.323Z,28.33
2018-01-30T10:35:06.917Z,29.23
2018-01-30T10:37:36.493Z,27.57
2018-01-30T10:40:06.090Z,26.07
2018-01-30T10:42:35.665Z,32.13
2018-01-30T10:45:05.958Z,22.83
2018-01-30T10:47:35.509Z,30.37
2018-01-30T10:50:06.772Z,27.50
2018-01-30T10:52:36.326Z,43.33
2018-01-30T10:55:06.254Z,44.93
2018-01-30T10:57:35.808Z,29.93
2018-01-30T11:00:13.920Z,21.87
2018-01-30T11:02:43.520Z,24.33
2018-01-30T11:05:17.902Z,30.87
2018-01-30T11:07:47.504Z,32.07
2018-01-30T11:10:17.042Z,19.10
2018-01-30T11:12:52.863Z,22.67
2018-01-30T11:15:22.423Z,27.63
2018-01-30T11:17:52.907Z,22.37
2018-01-30T11:20:22.438Z,28.43
2018-01-30T11:22:51.935Z,19.90
2018-01-30T11:25:33.614Z,23.93
2018-01-30T11:28:03.200Z,28.60
2018-01-30T11:30:33.154Z,26.23
2018-01-30T11:33:04.295Z,29.60
2018-01-30T11:35:33.858Z,22.47
2018-01-30T11:38:03.381Z,24.70
2018-01-30T11:40:32.951Z,24.17
2018-01-30T11:43:02.518Z,20.40
2018-01-30T11:45:32.059Z,30.87
2018-01-30T11:48:01.616Z,27.83
2018-01-30T11:50:31.663Z,23.87
2018-01-30T11:53:01.166Z,21.80
2018-01-30T11:55:30.735Z,34.53
2018-01-30T11:58:00.288Z,27.10
2018-01-30T12:00:29.943Z,35.43
2018-01-30T12:03:02.274Z,30.70
2018-01-30T12:05:31.848Z,25.27
2018-01-30T12:08:01.402Z,21.40
2018-01-30T12:10:36.939Z,28.30
2018-01-30T12:13:07.080Z,25.43
2018-01-30T12:15:36.634Z,22.30
2018-01-30T12:18:06.205Z,23.73
2018-01-30T12:20:35.738Z,19.20
2018-01-30T12:23:05.278Z,17.37
2018-01-30T12:25:35.054Z,16.37
2018-01-30T12:28:04.609Z,24.20
2018-01-30T12:30:34.260Z,23.43
2018-01-30T12:33:03.878Z,19.23
2018-01-30T12:35:33.466Z,22.23
2018-01-30T12:38:03.032Z,28.10
2018-01-30T12:57:47.672Z,23.00
2018-01-30T13:00:17.228Z,16.97
2018-01-30T13:14:14.052Z,13.67
2018-01-30T13:16:55.828Z,14.50
2018-01-30T13:19:25.367Z,16.43
2018-01-30T13:21:54.953Z,17.03
2018-01-30T13:24:24.528Z,9.60
2018-01-30T13:26:54.047Z,14.70
2018-01-30T13:29:24.235Z,17.47
2018-01-30T13:31:54.216Z,14.70
2018-01-30T13:36:59.139Z,14.37
2018-01-30T13:39:28.637Z,16.70
2018-01-30T13:41:58.182Z,20.00
2018-01-30T13:44:28.524Z,13.37
2018-01-30T13:46:59.776Z,19.50
2018-01-30T13:49:30.363Z,18.80
2018-01-30T13:52:00.654Z,16.53
2018-01-30T13:54:30.640Z,25.07
2018-01-30T13:57:02.972Z,16.17
2018-01-30T13:59:43.743Z,22.97
2018-01-30T14:02:14.651Z,18.03
2018-01-30T14:04:51.599Z,27.63
2018-01-30T14:10:14.322Z,21.30
2018-01-30T14:12:46.061Z,19.20
2018-01-30T14:18:01.899Z,16.70
2018-01-30T14:20:32.467Z,19.10
2018-01-30T14:23:15.846Z,15.60
2018-01-30T14:25:46.672Z,17.03
2018-01-30T14:28:18.302Z,18.90
2018-01-30T14:30:49.732Z,24.90
2018-01-30T14:33:21.115Z,23.07
2018-01-30T14:35:52.687Z,18.03
2018-01-30T14:38:22.723Z,20.67
2018-01-30T14:43:26.301Z,20.90
2018-01-30T14:48:38.312Z,22.27
2018-01-30T14:51:07.931Z,15.67
2018-01-30T14:56:11.434Z,20.97
2018-01-30T14:58:40.955Z,23.30
2018-01-30T15:01:10.446Z,21.93
2018-01-30T15:03:40.889Z,28.23
2018-01-30T15:06:33.201Z,22.17
2018-01-30T15:09:05.127Z,24.10
2018-01-30T15:11:34.614Z,31.43
2018-01-30T15:14:04.307Z,18.30
2018-01-30T15:16:35.145Z,27.27
2018-01-30T15:19:06.576Z,28.40
2018-01-30T15:21:55.096Z,20.60
2018-01-30T15:24:24.815Z,26.50
2018-01-30T15:26:54.407Z,22.13
2018-01-30T15:29:24.924Z,22.10
2018-01-30T15:31:54.475Z,15.70
2018-01-30T15:34:24.051Z,16.60
2018-01-30T15:36:53.795Z,16.60
2018-01-30T15:39:25.348Z,15.47
2018-01-30T15:41:55.820Z,12.53
2018-01-30T15:44:46.496Z,17.00
2018-01-30T15:47:16.023Z,14.00
2018-01-30T15:49:46.357Z,17.00
2018-01-30T15:52:16.161Z,13.60
2018-01-30T15:57:26.313Z,16.53
2018-01-30T15:59:55.782Z,10.27
2018-01-30T16:02:40.114Z,21.27
2018-01-30T16:05:11.806Z,11.83
2018-01-30T16:10:30.468Z,9.93
2018-01-30T16:13:08.323Z,15.10
2018-01-30T16:15:37.866Z,30.60
2018-01-30T16:18:07.653Z,26.00
2018-01-30T16:20:42.572Z,38.03
2018-01-30T16:23:13.052Z,21.40
2018-01-30T16:25:43.536Z,15.93
2018-01-30T16:28:13.711Z,15.60
2018-01-30T16:30:43.357Z,17.17
2018-01-30T16:33:14.684Z,39.20
2018-01-30T16:35:45.595Z,54.10
2018-01-30T16:38:16.070Z,52.83
2018-01-30T16:40:46.730Z,19.93
2018-01-30T16:43:23.467Z,19.13
2018-01-30T16:45:53.706Z,16.57
2018-01-30T16:48:29.223Z,24.53
2018-01-30T16:50:58.714Z,14.60
2018-01-30T16:53:34.211Z,9.03
2018-01-30T16:56:03.685Z,17.90
2018-01-30T16:58:33.162Z,15.57
2018-01-30T17:01:02.687Z,12.10
2018-01-30T17:03:32.570Z,14.70
2018-01-30T17:06:02.064Z,48.87
2018-01-30T17:08:31.571Z,35.07
2018-01-30T17:11:06.945Z,9.93
2018-01-30T17:13:36.517Z,24.70
2018-01-30T17:16:06.112Z,14.17
2018-01-30T17:18:35.680Z,25.97
2018-01-30T17:21:05.350Z,15.77
2018-01-30T17:23:34.889Z,8.97
2018-01-30T17:26:04.416Z,8.33
2018-01-30T17:28:33.936Z,13.17
2018-01-30T17:31:03.441Z,9.83
2018-01-30T17:33:32.994Z,17.80
2018-01-30T17:36:02.556Z,11.30
2018-01-30T17:38:32.049Z,13.93
2018-01-30T17:41:02.077Z,13.30
2018-01-30T17:43:31.596Z,11.57
2018-01-30T17:46:01.092Z,13.60
2018-01-30T17:48:30.881Z,19.17
2018-01-30T17:51:00.444Z,19.83
2018-01-30T17:53:38.316Z,9.80
2018-01-30T17:56:07.919Z,13.17
2018-01-30T17:58:37.779Z,11.63
2018-01-30T18:01:07.247Z,18.30
2018-01-30T18:03:37.262Z,18.03
2018-01-30T18:06:12.788Z,10.43
2018-01-30T18:08:42.353Z,14.00
2018-01-30T18:11:11.852Z,17.03
2018-01-30T18:13:42.198Z,19.07
2018-01-30T18:16:11.802Z,12.90
2018-01-30T18:18:54.691Z,14.70
2018-01-30T18:21:24.217Z,12.13
2018-01-30T18:23:53.793Z,17.47
2018-01-30T18:26:23.910Z,18.40
2018-01-30T18:28:53.446Z,16.53
2018-01-30T18:31:35.443Z,14.10
2018-01-30T18:34:04.974Z,14.70
2018-01-30T18:36:34.475Z,21.87
2018-01-30T18:39:04.022Z,15.23
2018-01-30T18:41:34.339Z,15.57
2018-01-30T18:44:04.321Z,15.13
2018-01-30T18:46:33.933Z,14.50
2018-01-30T18:49:03.509Z,16.00
2018-01-30T18:51:33.069Z,14.43
2018-01-30T18:54:03.083Z,17.40
2018-01-30T18:56:32.616Z,19.97
2018-01-30T18:59:02.172Z,17.00
2018-01-30T19:01:31.684Z,17.17
2018-01-30T19:04:01.402Z,19.10
2018-01-30T19:06:32.158Z,20.03
2018-01-30T19:09:01.718Z,19.10
2018-01-30T19:11:31.260Z,21.80
2018-01-30T19:14:00.831Z,17.67
2018-01-30T19:16:30.748Z,23.70
2018-01-30T19:19:00.445Z,15.50
2018-01-30T19:21:30.124Z,22.17
2018-01-30T19:23:59.701Z,18.30
2018-01-30T19:26:29.217Z,17.47
2018-01-30T19:28:58.858Z,20.23
2018-01-30T19:31:28.543Z,18.73
2018-01-30T19:33:58.125Z,18.03
2018-01-30T19:36:27.707Z,24.73
2018-01-30T19:38:57.242Z,19.87
2018-01-30T19:41:26.807Z,24.13
2018-01-30T19:43:56.358Z,21.30
2018-01-30T19:46:25.886Z,15.53
2018-01-30T19:49:03.287Z,20.10
2018-01-30T19:51:32.875Z,18.70
2018-01-30T19:54:02.490Z,25.87
2018-01-30T19:56:32.036Z,21.63
2018-01-30T19:59:01.587Z,25.33
2018-01-30T20:01:31.188Z,36.40
2018-01-30T20:04:00.696Z,25.43
2018-01-30T20:06:41.786Z,24.80
2018-01-30T20:09:11.377Z,19.73
2018-01-30T20:11:40.926Z,16.73
2018-01-30T20:14:10.463Z,18.00
2018-01-30T20:16:40.023Z,28.07
2018-01-30T20:19:09.562Z,33.17
2018-01-30T20:21:39.165Z,26.50
2018-01-30T20:24:08.723Z,30.10
2018-01-30T20:26:45.251Z,16.80
2018-01-30T20:29:15.214Z,17.23
2018-01-30T20:31:45.723Z,20.87
2018-01-30T20:34:15.397Z,18.00
2018-01-30T20:36:45.046Z,19.97
2018-01-30T20:39:14.587Z,12.60
2018-01-30T20:41:45.512Z,12.40
2018-01-30T20:44:16.008Z,16.20
2018-01-30T20:46:51.636Z,13.63
2018-01-30T20:49:21.169Z,20.37
2018-01-30T20:51:56.795Z,10.83
2018-01-30T20:54:26.416Z,20.63
2018-01-30T20:56:56.131Z,10.97
2018-01-30T20:59:25.730Z,11.90
2018-01-30T21:01:56.048Z,13.90
2018-01-30T21:04:26.411Z,12.63
2018-01-30T21:07:00.529Z,15.03
2018-01-30T21:09:30.938Z,12.90
2018-01-30T21:12:00.650Z,12.83
2018-01-30T21:14:30.424Z,10.10
2018-01-30T21:17:00.000Z,9.33
2018-01-30T21:19:29.673Z,11.80
2018-01-30T21:21:59.263Z,10.67
2018-01-30T21:24:28.878Z,10.50
2018-01-30T21:26:58.462Z,11.33
2018-01-30T21:29:28.495Z,14.03
2018-01-30T21:31:59.215Z,11.03
2018-01-30T21:34:28.913Z,9.47
2018-01-30T21:36:59.383Z,11.23
2018-01-30T21:39:28.983Z,13.67
2018-01-30T21:41:58.549Z,17.57
2018-01-30T21:44:28.120Z,22.20
2018-01-30T21:46:58.004Z,13.27
2018-01-30T21:49:42.719Z,13.93
2018-01-30T21:52:18.329Z,11.40
2018-01-30T21:54:49.942Z,17.27
2018-01-30T21:57:19.522Z,10.70
2018-01-30T21:59:56.224Z,10.50
2018-01-30T22:02:26.840Z,9.50
2018-01-30T22:04:57.470Z,10.27
2018-01-30T22:10:02.647Z,12.60
2018-01-30T22:12:32.234Z,15.50
2018-01-30T22:15:07.841Z,9.70
2018-01-30T22:17:38.113Z,17.20
2018-01-30T22:20:07.699Z,8.20
2018-01-30T22:22:37.233Z,8.13
2018-01-30T22:25:08.684Z,7.13
2018-01-30T22:27:38.410Z,10.97
2018-01-30T22:30:21.842Z,8.87
2018-01-30T22:32:51.433Z,7.73
2018-01-30T22:35:21.396Z,9.70
2018-01-30T22:37:50.948Z,8.47
2018-01-30T22:40:23.554Z,8.07
2018-01-30T22:42:53.141Z,7.93
2018-01-30T22:45:22.735Z,9.60
